Time;durP1;ratioP1;P1;durP2;ratioP2;P2;SDS_P1;SDS_P2;PMS_P1;PMS_P2;Temp;Humidity;BMP_temperature;BMP_pressure;BME280_temperature;BME280_humidity;BME280_pressure;Samples;Min_cycle;Max_cycle;Signal;HPM_P1;HPM_P2
2022/01/26 00:00:08;;;;;;;33.60;16.00;;;;;;;0.17;87.46;99705.83;107917;1279;22649;-77
2022/01/26 00:08:06;;;;;;;31.00;15.70;;;;;;;0.10;87.36;99704.14;107918;1279;22695;-75
2022/01/26 00:10:34;;;;;;;39.00;18.20;;;;;;;0.13;87.29;99703.27;107961;1279;22566;-76
2022/01/26 00:13:01;;;;;;;36.50;17.60;;;;;;;0.15;87.32;99703.61;107937;1279;22566;-78
2022/01/26 00:15:30;;;;;;;28.80;15.90;;;;;;;0.17;87.54;99699.48;107926;1279;26722;-79
2022/01/26 00:17:57;;;;;;;33.00;15.20;;;;;;;0.13;87.63;99701.21;107958;1279;22630;-79
2022/01/26 00:20:31;;;;;;;38.50;17.00;;;;;;;0.09;87.61;99699.01;107928;1279;22659;-79
2022/01/26 00:28:08;;;;;;;32.50;15.50;;;;;;;0.13;87.42;99700.02;107920;1279;22908;-79
2022/01/26 00:38:55;;;;;;;29.20;14.60;;;;;;;0.09;87.50;99694.90;108036;1279;22562;-78
2022/01/26 00:41:35;;;;;;;32.50;16.20;;;;;;;0.11;87.58;99694.54;108049;1279;22550;-75
2022/01/26 00:44:05;;;;;;;28.00;13.90;;;;;;;0.14;87.50;99698.30;108127;1279;22711;-75
2022/01/26 00:46:33;;;;;;;25.60;13.10;;;;;;;0.14;87.64;99694.88;108019;1279;22576;-76
2022/01/26 00:49:00;;;;;;;24.10;12.90;;;;;;;0.12;87.75;99695.39;108019;1279;22722;-76
2022/01/26 00:51:27;;;;;;;30.00;14.40;;;;;;;0.11;87.86;99689.91;108022;1279;22709;-76
2022/01/26 00:54:02;;;;;;;34.10;17.00;;;;;;;0.09;87.72;99686.68;108036;1279;22631;-77
2022/01/26 00:56:30;;;;;;;33.70;16.30;;;;;;;0.12;87.62;99686.83;108038;1279;22667;-74
2022/01/26 00:58:58;;;;;;;34.80;16.20;;;;;;;0.13;87.54;99689.23;108052;1279;22782;-77
2022/01/26 01:01:25;;;;;;;27.40;12.70;;;;;;;0.14;87.71;99684.59;108230;1277;24370;-74
2022/01/26 01:03:52;;;;;;;30.60;13.70;;;;;;;0.11;87.88;99683.40;108027;1279;22556;-76
2022/01/26 01:06:26;;;;;;;30.50;14.00;;;;;;;0.11;87.95;99684.95;108036;1279;22559;-76
2022/01/26 01:08:56;;;;;;;26.70;13.90;;;;;;;0.10;87.73;99684.79;108036;1279;23030;-75
2022/01/26 01:11:25;;;;;;;31.30;16.00;;;;;;;0.09;87.42;99686.69;108061;1279;22699;-73
2022/01/26 01:13:54;;;;;;;33.60;16.40;;;;;;;0.12;87.35;99685.63;108002;1279;22636;-73
2022/01/26 01:16:23;;;;;;;27.50;14.70;;;;;;;0.15;87.44;99682.89;108073;1278;26555;-77
2022/01/26 01:19:04;;;;;;;26.90;14.40;;;;;;;0.14;87.38;99678.43;107849;1279;22589;-78
2022/01/26 01:29:56;;;;;;;28.40;14.30;;;;;;;0.11;87.53;99680.48;108027;1279;22568;-78
2022/01/26 01:32:16;;;;;;;28.80;13.70;;;;;;;0.14;87.40;99679.12;108044;1279;24464;-77
2022/01/26 01:34:43;;;;;;;29.20;14.10;;;;;;;0.16;87.44;99678.08;107969;1279;22612;-78
2022/01/26 01:37:15;;;;;;;26.80;12.80;;;;;;;0.15;87.67;99675.85;108049;1279;26638;-78
2022/01/26 01:39:42;;;;;;;26.30;11.80;;;;;;;0.12;87.85;99678.09;108214;1279;22529;-78
2022/01/26 01:42:10;;;;;;;23.80;12.40;;;;;;;0.09;87.81;99676.23;108204;1279;22565;-78
2022/01/26 01:44:37;;;;;;;25.30;13.60;;;;;;;0.07;87.59;99673.52;108216;1279;22567;-81
2022/01/26 01:47:06;;;;;;;29.80;13.80;;;;;;;0.09;87.52;99673.14;108237;1279;22588;-78
2022/01/26 01:49:34;;;;;;;27.90;14.60;;;;;;;0.10;87.43;99670.90;108242;1279;22699;-79
2022/01/26 01:52:06;;;;;;;27.10;13.10;;;;;;;0.12;87.52;99670.55;108207;1279;22888;-78
2022/01/26 01:54:33;;;;;;;24.40;12.40;;;;;;;0.11;87.70;99665.59;108228;1279;22632;-76
2022/01/26 01:57:00;;;;;;;23.50;13.10;;;;;;;0.07;87.67;99660.84;108197;1279;22574;-79
2022/01/26 01:59:30;;;;;;;24.10;12.70;;;;;;;0.06;87.39;99663.41;108209;1279;22559;-78
2022/01/26 02:01:58;;;;;;;30.10;16.00;;;;;;;0.08;87.44;99661.87;108213;1279;22646;-78
2022/01/26 02:04:26;;;;;;;28.00;15.00;;;;;;;0.10;87.40;99663.02;108201;1279;22544;-78
2022/01/26 02:06:53;;;;;;;22.40;12.50;;;;;;;0.13;87.65;99664.05;108220;1279;22556;-77
2022/01/26 02:09:20;;;;;;;24.00;13.00;;;;;;;0.10;87.66;99663.20;108216;1279;22563;-78
2022/01/26 02:11:50;;;;;;;23.30;13.10;;;;;;;0.10;87.67;99661.84;108246;1279;23323;-79
2022/01/26 02:14:32;;;;;;;24.50;13.10;;;;;;;0.07;87.59;99659.13;108200;1279;22644;-78
2022/01/26 02:17:16;;;;;;;35.30;15.50;;;;;;;0.06;87.42;99658.27;108226;1278;22708;-78
2022/01/26 03:03:39;;;;;;;19.10;10.70;;;;;;;-0.03;87.90;99628.70;108207;1279;22556;-78
2022/01/26 03:06:12;;;;;;;23.00;11.60;;;;;;;-0.03;87.77;99627.67;108204;1279;25307;-77
2022/01/26 03:08:41;;;;;;;25.00;13.70;;;;;;;-0.00;87.56;99626.30;108224;1279;22550;-78
2022/01/26 03:11:11;;;;;;;23.70;13.30;;;;;;;0.03;87.60;99623.86;108224;1279;22630;-78
2022/01/26 03:13:45;;;;;;;22.60;11.90;;;;;;;0.04;87.86;99626.42;108222;1276;25332;-79
2022/01/26 03:16:18;;;;;;;21.20;12.00;;;;;;;0.04;87.93;99626.60;108221;1279;22591;-77
2022/01/26 03:21:13;;;;;;;27.40;13.00;;;;;;;0.01;87.92;99619.25;108203;1279;22550;-83
2022/01/26 03:29:38;;;;;;;20.30;10.40;;;;;;;0.08;87.94;99612.18;108236;1279;22640;-78
2022/01/26 03:34:54;;;;;;;18.10;10.10;;;;;;;0.03;87.98;99626.94;108210;1279;22559;-78
2022/01/26 03:37:26;;;;;;;26.30;12.20;;;;;;;0.01;87.83;99626.10;108239;1279;22539;-78
2022/01/26 03:39:53;;;;;;;27.00;13.10;;;;;;;0.04;87.75;99630.88;108210;1279;22641;-78
2022/01/26 03:42:20;;;;;;;21.50;11.30;;;;;;;0.08;87.65;99626.23;108226;1279;22566;-79
2022/01/26 03:44:47;;;;;;;19.60;9.90;;;;;;;0.10;87.86;99625.00;108227;1279;22661;-78
2022/01/26 03:47:14;;;;;;;17.90;9.70;;;;;;;0.12;88.00;99624.98;108210;1279;22559;-74
2022/01/26 03:49:41;;;;;;;18.20;10.40;;;;;;;0.10;88.21;99625.00;108226;1279;22569;-74
2022/01/26 03:52:10;;;;;;;23.20;11.10;;;;;;;0.10;87.91;99624.16;108212;1279;22566;-78
2022/01/26 03:54:37;;;;;;;21.70;12.10;;;;;;;0.09;87.79;99630.49;108202;1279;25327;-74
2022/01/26 03:57:05;;;;;;;23.50;13.00;;;;;;;0.13;87.93;99630.64;108228;1279;22556;-74
2022/01/26 03:59:32;;;;;;;24.00;11.60;;;;;;;0.15;87.83;99626.02;108217;1279;22570;-74
2022/01/26 04:01:59;;;;;;;19.50;10.30;;;;;;;0.15;87.88;99621.20;108215;1279;22583;-78
2022/01/26 04:04:29;;;;;;;17.70;10.10;;;;;;;0.13;88.00;99625.16;108217;1279;22568;-78
2022/01/26 04:06:59;;;;;;;20.30;12.60;;;;;;;0.11;88.06;99623.45;108215;1279;22562;-79
2022/01/26 04:09:26;;;;;;;23.90;12.00;;;;;;;0.11;87.94;99620.38;108206;1279;22823;-77
2022/01/26 04:11:53;;;;;;;25.90;12.80;;;;;;;0.11;87.77;99621.40;108224;1279;22559;-78
2022/01/26 04:14:25;;;;;;;24.00;13.70;;;;;;;0.12;87.86;99614.20;108225;1279;22613;-77
2022/01/26 04:16:52;;;;;;;21.20;11.60;;;;;;;0.11;88.03;99618.48;108201;1279;22568;-79
2022/01/26 04:19:20;;;;;;;22.80;12.60;;;;;;;0.09;88.15;99615.77;108203;1279;22588;-78
2022/01/26 04:22:00;;;;;;;24.20;12.60;;;;;;;0.06;88.11;99612.90;108199;1279;22600;-78
2022/01/26 04:24:34;;;;;;;27.30;13.80;;;;;;;0.05;88.03;99616.32;108227;1279;25339;-78
2022/01/26 04:27:07;;;;;;;27.90;15.30;;;;;;;0.08;87.96;99616.30;108193;1279;25408;-78
2022/01/26 04:29:35;;;;;;;27.80;15.10;;;;;;;0.12;87.84;99616.95;108206;1279;22584;-78
2022/01/26 04:32:05;;;;;;;23.80;13.30;;;;;;;0.13;88.11;99614.20;108214;1279;22683;-77
2022/01/26 04:34:33;;;;;;;25.00;12.90;;;;;;;0.11;88.08;99617.46;108208;1279;22571;-78
2022/01/26 04:39:36;;;;;;;28.00;15.00;;;;;;;0.06;87.93;99620.42;108215;1279;22566;-78
2022/01/26 04:42:10;;;;;;;27.20;14.60;;;;;;;0.09;87.92;99624.85;108215;1279;25311;-78
2022/01/26 04:44:51;;;;;;;25.90;13.60;;;;;;;0.10;87.96;99620.89;108196;1279;22562;-77
2022/01/26 04:47:18;;;;;;;21.10;11.60;;;;;;;0.09;88.07;99623.14;108208;1279;22569;-77
2022/01/26 04:49:44;;;;;;;20.80;10.80;;;;;;;0.09;88.09;99623.14;108204;1279;22569;-77
2022/01/26 04:52:11;;;;;;;22.30;11.60;;;;;;;0.08;87.94;99622.47;108204;1279;22571;-79
2022/01/26 04:54:38;;;;;;;23.10;12.90;;;;;;;0.04;87.81;99623.69;108204;1279;22569;-78
2022/01/26 04:57:05;;;;;;;27.50;13.60;;;;;;;0.05;87.70;99621.45;108205;1279;22591;-77
2022/01/26 04:59:32;;;;;;;24.30;13.20;;;;;;;0.07;87.85;99619.05;108208;1279;24409;-76
2022/01/26 05:01:59;;;;;;;25.10;13.30;;;;;;;0.08;87.98;99618.36;108221;1279;22632;-78
2022/01/26 05:04:26;;;;;;;23.20;11.80;;;;;;;0.06;88.13;99616.48;108216;1279;22510;-78
2022/01/26 05:06:53;;;;;;;22.80;11.90;;;;;;;0.03;88.14;99619.41;108206;1279;24412;-78
2022/01/26 05:09:21;;;;;;;22.50;12.60;;;;;;;-0.01;87.98;99613.29;107954;1279;22728;-77
2022/01/26 05:11:51;;;;;;;24.50;13.30;;;;;;;-0.01;87.92;99610.02;107947;1279;22562;-78
2022/01/26 05:14:18;;;;;;;30.20;15.70;;;;;;;0.04;87.68;99607.41;107941;1279;22718;-78
2022/01/26 05:16:45;;;;;;;28.60;14.30;;;;;;;0.07;87.73;99606.20;107956;1279;25333;-78
2022/01/26 05:19:12;;;;;;;25.20;12.70;;;;;;;0.10;88.04;99605.98;107939;1279;22611;-78
2022/01/26 05:21:41;;;;;;;22.60;12.80;;;;;;;0.08;88.07;99601.92;107940;1279;22554;-77
2022/01/26 05:24:10;;;;;;;23.90;12.30;;;;;;;0.07;88.22;99603.64;107970;1279;22577;-78
2022/01/26 05:26:38;;;;;;;28.60;14.70;;;;;;;0.06;88.18;99604.66;107973;1276;25366;-78
2022/01/26 05:29:06;;;;;;;28.70;15.20;;;;;;;0.10;88.06;99603.77;107992;1279;24390;-76
2022/01/26 05:31:33;;;;;;;25.80;14.30;;;;;;;0.15;88.05;99605.29;107924;1279;22613;-73
2022/01/26 05:34:00;;;;;;;27.90;13.40;;;;;;;0.14;88.27;99604.27;107926;1279;22754;-75
2022/01/26 05:36:27;;;;;;;30.00;15.10;;;;;;;0.13;88.32;99600.67;107922;1279;24317;-74
2022/01/26 05:38:54;;;;;;;29.60;15.00;;;;;;;0.12;88.30;99598.79;107947;1279;22645;-73
2022/01/26 05:41:21;;;;;;;28.10;13.70;;;;;;;0.11;88.21;99595.36;107950;1279;22568;-73
2022/01/26 05:43:48;;;;;;;27.00;14.80;;;;;;;0.14;88.02;99595.86;107906;1279;22572;-73
2022/01/26 05:46:25;;;;;;;27.70;14.10;;;;;;;0.15;88.13;99593.80;107964;1279;22558;-75
2022/01/26 05:48:53;;;;;;;25.50;13.90;;;;;;;0.15;88.15;99587.64;107942;1279;22782;-73
2022/01/26 05:51:20;;;;;;;26.40;14.20;;;;;;;0.13;88.46;99589.70;107943;1279;22590;-72
2022/01/26 05:53:47;;;;;;;27.40;13.20;;;;;;;0.12;88.44;99589.02;107926;1279;23353;-75
2022/01/26 05:56:14;;;;;;;28.70;13.40;;;;;;;0.12;88.28;99587.31;107922;1279;22627;-73
2022/01/26 05:58:40;;;;;;;27.30;14.10;;;;;;;0.15;87.99;99589.52;107941;1279;25947;-74
2022/01/26 06:01:07;;;;;;;29.20;13.70;;;;;;;0.14;87.81;99593.30;107910;1279;22718;-77
2022/01/26 06:03:34;;;;;;;27.70;13.50;;;;;;;0.13;87.94;99592.27;107947;1279;22571;-77
2022/01/26 06:06:01;;;;;;;23.20;12.80;;;;;;;0.07;88.06;99593.17;107936;1279;22611;-77
2022/01/26 06:08:28;;;;;;;24.40;13.30;;;;;;;0.04;88.13;99594.06;107907;1279;22577;-76
2022/01/26 06:10:56;;;;;;;27.70;13.50;;;;;;;0.02;88.07;99596.63;107955;1279;22560;-77
2022/01/26 06:13:23;;;;;;;31.80;15.90;;;;;;;0.04;87.86;99598.34;107907;1279;22632;-76
2022/01/26 06:15:51;;;;;;;25.50;13.60;;;;;;;0.06;87.94;99597.30;107955;1279;25361;-75
2022/01/26 06:18:18;;;;;;;23.80;13.00;;;;;;;0.08;87.92;99597.81;107942;1279;22561;-77
2022/01/26 06:20:45;;;;;;;27.30;14.40;;;;;;;0.04;88.03;99597.48;107921;1279;24274;-77
2022/01/26 06:23:12;;;;;;;27.60;13.70;;;;;;;0.03;88.07;99599.88;107961;1279;22566;-77
2022/01/26 06:25:39;;;;;;;28.60;15.30;;;;;;;0.03;88.04;99592.34;107924;1279;24397;-75
2022/01/26 06:28:11;;;;;;;33.00;16.70;;;;;;;0.02;87.64;99594.41;107919;1279;25500;-74
2022/01/26 06:30:39;;;;;;;28.80;16.30;;;;;;;0.04;87.70;99596.45;107899;1279;22629;-77
2022/01/26 06:33:07;;;;;;;28.60;15.70;;;;;;;0.06;87.81;99597.48;107913;1279;22647;-77
2022/01/26 06:35:35;;;;;;;32.10;15.10;;;;;;;0.07;87.82;99594.21;108031;1279;25387;-78
2022/01/26 06:38:02;;;;;;;28.70;15.90;;;;;;;0.05;87.88;99589.08;108054;1279;22632;-75
2022/01/26 06:40:30;;;;;;;27.90;14.90;;;;;;;0.05;87.85;99584.29;108026;1279;22590;-76
2022/01/26 06:43:01;;;;;;;30.60;16.20;;;;;;;0.04;87.84;99583.09;108028;1279;22579;-77
2022/01/26 06:45:32;;;;;;;32.80;17.60;;;;;;;0.09;87.70;99577.75;107856;1279;25483;-78
2022/01/26 06:50:45;;;;;;;24.60;12.00;;;;;;;0.11;87.95;99578.23;108025;1279;22719;-76
2022/01/26 06:53:13;;;;;;;25.80;13.40;;;;;;;0.09;88.16;99579.81;108035;1279;22603;-77
2022/01/26 06:55:40;;;;;;;24.10;12.50;;;;;;;0.07;88.10;99579.31;107999;1279;22589;-77
2022/01/26 06:58:07;;;;;;;24.80;13.10;;;;;;;0.07;88.06;99579.66;108031;1279;25408;-77
2022/01/26 07:00:35;;;;;;;20.10;10.90;;;;;;;0.08;87.97;99578.27;108034;1279;22816;-77
2022/01/26 07:03:02;;;;;;;24.10;13.10;;;;;;;0.12;87.79;99577.73;108035;1279;22629;-77
2022/01/26 07:05:29;;;;;;;24.40;13.10;;;;;;;0.13;87.75;99580.28;107987;1279;22710;-77
2022/01/26 07:07:56;;;;;;;23.10;12.80;;;;;;;0.16;87.76;99581.30;108018;1279;24345;-76
2022/01/26 07:10:23;;;;;;;22.40;12.40;;;;;;;0.18;88.08;99575.62;108050;1279;22692;-76
2022/01/26 07:12:50;;;;;;;22.40;13.10;;;;;;;0.19;88.22;99576.96;108072;1279;22626;-76
2022/01/26 07:23:41;;;;;;;28.70;16.80;;;;;;;0.23;87.74;99579.69;108014;1279;22588;-75
2022/01/26 07:26:08;;;;;;;24.20;14.60;;;;;;;0.25;88.03;99575.05;108046;1279;22555;-77
2022/01/26 07:28:38;;;;;;;30.80;15.70;;;;;;;0.24;88.14;99575.91;108023;1279;22630;-76
2022/01/26 07:31:06;;;;;;;35.70;16.30;;;;;;;0.24;88.11;99571.98;108239;1279;22565;-76
2022/01/26 07:33:34;;;;;;;29.40;15.30;;;;;;;0.24;87.96;99575.91;108030;1279;24274;-75
2022/01/26 07:36:01;;;;;;;26.90;14.90;;;;;;;0.29;87.85;99574.31;107939;1279;22650;-76
2022/01/26 07:38:28;;;;;;;25.00;13.80;;;;;;;0.33;88.03;99572.74;107979;1279;22652;-75
2022/01/26 07:40:55;;;;;;;23.90;14.00;;;;;;;0.36;88.10;99572.02;107942;1279;25694;-77
2022/01/26 07:43:22;;;;;;;25.60;15.30;;;;;;;0.32;88.20;99571.55;107932;1279;22914;-76
2022/01/26 07:45:49;;;;;;;26.60;12.60;;;;;;;0.32;88.20;99572.41;107919;1279;22762;-77
2022/01/26 07:48:16;;;;;;;24.50;12.50;;;;;;;0.29;88.04;99574.14;107958;1279;22568;-77
2022/01/26 07:50:44;;;;;;;26.50;14.10;;;;;;;0.32;88.06;99574.64;107978;1279;22689;-76
2022/01/26 07:53:15;;;;;;;26.70;14.40;;;;;;;0.36;87.87;99572.36;107985;1279;22569;-76
2022/01/26 07:55:43;;;;;;;25.10;14.10;;;;;;;0.40;87.87;99576.79;107964;1279;22645;-76
2022/01/26 07:58:12;;;;;;;23.60;13.50;;;;;;;0.43;88.05;99580.03;108093;1279;23401;-76
2022/01/26 08:00:39;;;;;;;23.80;13.40;;;;;;;0.44;88.16;99579.00;107933;1279;22626;-76
2022/01/26 08:03:06;;;;;;;27.40;15.10;;;;;;;0.43;88.21;99578.48;107956;1279;28058;-79
2022/01/26 08:05:33;;;;;;;28.20;14.50;;;;;;;0.42;88.12;99579.86;107974;1279;22561;-78
2022/01/26 08:08:00;;;;;;;29.60;15.40;;;;;;;0.43;88.05;99582.60;107943;1279;22632;-79
2022/01/26 08:10:27;;;;;;;29.30;14.80;;;;;;;0.46;87.97;99578.28;107931;1278;22639;-79
2022/01/26 08:12:54;;;;;;;26.50;14.50;;;;;;;0.50;87.98;99582.52;107940;1279;22579;-78
2022/01/26 08:15:21;;;;;;;25.70;13.00;;;;;;;0.53;88.04;99582.17;107935;1279;22632;-78
2022/01/26 08:17:48;;;;;;;26.20;14.10;;;;;;;0.52;88.07;99581.66;107953;1279;22570;-75
2022/01/26 08:20:15;;;;;;;24.20;13.20;;;;;;;0.53;88.34;99582.69;107935;1279;22643;-75
2022/01/26 08:22:42;;;;;;;24.30;13.50;;;;;;;0.54;87.98;99583.00;107943;1279;22623;-77
2022/01/26 08:25:10;;;;;;;28.70;15.50;;;;;;;0.53;87.80;99586.28;107941;1279;22626;-77
2022/01/26 08:27:44;;;;;;;26.90;15.60;;;;;;;0.55;87.71;99584.02;107945;1279;22584;-79
2022/01/26 08:30:16;;;;;;;28.10;15.80;;;;;;;0.56;87.76;99577.48;107942;1279;22578;-77
2022/01/26 08:32:43;;;;;;;35.70;16.80;;;;;;;0.58;87.92;99578.84;107980;1279;23389;-78
2022/01/26 08:35:10;;;;;;;28.30;14.50;;;;;;;0.61;87.91;99579.86;107968;1279;22661;-78
2022/01/26 08:37:38;;;;;;;24.90;14.30;;;;;;;0.62;88.01;99580.70;107943;1279;22583;-78
2022/01/26 08:40:06;;;;;;;29.60;15.70;;;;;;;0.61;88.13;99582.26;107958;1279;22694;-79
2022/01/26 08:42:33;;;;;;;28.70;15.70;;;;;;;0.63;88.01;99583.08;107964;1279;22648;-77
2022/01/26 08:45:00;;;;;;;31.90;18.00;;;;;;;0.69;87.90;99584.73;107919;1279;22632;-79
2022/01/26 08:47:27;;;;;;;33.60;16.60;;;;;;;0.71;87.78;99580.60;107916;1279;22565;-77
2022/01/26 08:49:54;;;;;;;28.00;15.50;;;;;;;0.71;87.99;99578.38;107926;1279;26668;-81
2022/01/26 08:52:20;;;;;;;26.10;15.10;;;;;;;0.69;88.09;99580.63;107942;1279;22743;-78
2022/01/26 08:54:47;;;;;;;25.80;14.90;;;;;;;0.66;88.07;99577.22;107953;1279;22572;-78
2022/01/26 08:57:14;;;;;;;32.30;16.30;;;;;;;0.67;88.02;99578.08;107931;1279;22661;-78
2022/01/26 08:59:41;;;;;;;31.10;16.00;;;;;;;0.67;87.89;99583.55;107939;1279;22569;-78
2022/01/26 09:02:08;;;;;;;33.70;16.20;;;;;;;0.72;87.61;99578.69;107935;1279;22629;-78
2022/01/26 09:04:35;;;;;;;34.00;16.30;;;;;;;0.74;87.65;99583.46;107921;1279;22546;-76
2022/01/26 09:07:04;;;;;;;35.90;18.70;;;;;;;0.77;87.71;99589.45;107965;1279;22651;-77
2022/01/26 09:09:41;;;;;;;33.90;17.00;;;;;;;0.78;87.99;99592.02;107783;1279;22548;-78
2022/01/26 09:12:11;;;;;;;34.90;18.00;;;;;;;0.79;88.01;99593.90;107925;1279;22636;-77
2022/01/26 09:14:38;;;;;;;32.90;18.40;;;;;;;0.76;87.81;99599.76;107978;1279;22687;-78
2022/01/26 09:17:07;;;;;;;34.80;19.10;;;;;;;0.74;87.88;99605.94;108021;1279;23855;-78
2022/01/26 09:19:35;;;;;;;36.60;19.60;;;;;;;0.79;87.71;99604.70;107968;1279;22665;-78
2022/01/26 09:22:04;;;;;;;32.00;17.80;;;;;;;0.83;87.74;99600.70;107923;1279;24435;-80
2022/01/26 09:24:35;;;;;;;32.20;14.60;;;;;;;0.84;87.93;99599.48;107963;1278;23087;-77
2022/01/26 09:27:04;;;;;;;32.90;17.40;;;;;;;0.82;87.95;99595.39;107966;1279;22705;-77
2022/01/26 09:29:32;;;;;;;31.50;17.10;;;;;;;0.82;88.01;99591.98;107963;1279;25428;-77
2022/01/26 09:31:59;;;;;;;32.30;16.20;;;;;;;0.79;87.77;99588.92;107906;1279;22715;-78
2022/01/26 09:34:29;;;;;;;29.50;16.90;;;;;;;0.78;87.69;99592.02;107922;1279;22561;-78
2022/01/26 09:36:57;;;;;;;34.20;18.50;;;;;;;0.80;87.43;99585.48;107935;1279;27737;-78
2022/01/26 09:39:24;;;;;;;38.10;17.40;;;;;;;0.83;87.47;99587.32;107921;1279;22568;-78
2022/01/26 09:41:52;;;;;;;35.80;18.30;;;;;;;0.86;87.71;99586.79;107930;1279;22593;-78
2022/01/26 09:44:21;;;;;;;38.20;17.80;;;;;;;0.84;88.05;99591.08;107965;1279;22680;-81
2022/01/26 09:46:48;;;;;;;36.50;17.70;;;;;;;0.81;88.06;99588.37;107936;1279;22648;-79
2022/01/26 09:49:17;;;;;;;45.90;18.20;;;;;;;0.80;87.88;99589.08;107927;1279;22662;-79
2022/01/26 09:51:48;;;;;;;48.00;20.50;;;;;;;0.79;87.82;99591.84;108002;1279;22675;-79
2022/01/26 09:54:17;;;;;;;40.70;21.20;;;;;;;0.84;87.54;99585.77;107958;1279;22567;-79
2022/01/26 09:56:49;;;;;;;32.60;17.00;;;;;;;0.87;87.67;99584.20;107972;1279;25475;-79
2022/01/26 09:59:18;;;;;;;23.30;14.00;;;;;;;0.87;87.89;99586.43;107960;1279;23274;-81
2022/01/26 10:01:50;;;;;;;30.80;16.70;;;;;;;0.84;88.00;99588.34;107978;1279;22650;-80
2022/01/26 10:04:29;;;;;;;35.50;18.10;;;;;;;0.83;87.98;99589.90;107981;1279;22724;-79
2022/01/26 10:06:59;;;;;;;38.60;19.60;;;;;;;0.84;87.84;99590.40;107953;1279;25444;-78
2022/01/26 10:17:41;;;;;;;33.40;15.60;;;;;;;0.92;87.86;99579.16;107977;1279;24445;-78
2022/01/26 10:20:14;;;;;;;31.40;16.30;;;;;;;0.92;87.75;99579.33;107928;1279;25372;-77
2022/01/26 10:22:43;;;;;;;33.60;17.30;;;;;;;0.91;87.59;99575.22;107960;1279;25411;-78
2022/01/26 10:25:19;;;;;;;37.10;18.10;;;;;;;0.96;87.42;99573.13;108001;1279;22620;-78
2022/01/26 10:27:50;;;;;;;37.90;17.90;;;;;;;0.98;87.45;99570.36;107947;1279;22560;-78
2022/01/26 10:30:21;;;;;;;26.70;14.50;;;;;;;1.02;87.63;99570.80;107962;1279;22722;-77
2022/01/26 10:32:48;;;;;;;29.90;15.50;;;;;;;1.04;87.73;99569.08;107954;1279;24274;-88
2022/01/26 10:35:16;;;;;;;34.00;17.10;;;;;;;1.06;87.71;99561.86;107894;1279;22569;-75
2022/01/26 10:37:54;;;;;;;34.50;18.30;;;;;;;1.11;87.70;99557.49;107981;1279;24114;-78
2022/01/26 10:40:29;;;;;;;34.70;17.20;;;;;;;1.15;87.39;99554.04;108216;1279;25413;-84
2022/01/26 10:43:00;;;;;;;31.70;17.20;;;;;;;1.17;87.35;99550.05;108338;1279;22556;-81
2022/01/26 10:48:39;;;;;;;30.50;16.50;;;;;;;1.22;87.46;99547.77;108292;1279;24083;-88
2022/01/26 10:53:50;;;;;;;22.50;12.10;;;;;;;1.20;87.30;99544.69;108243;1279;22558;-79
2022/01/26 10:56:17;;;;;;;20.90;11.90;;;;;;;1.17;87.25;99542.83;108225;1279;25339;-79
2022/01/26 10:58:44;;;;;;;26.40;12.80;;;;;;;1.16;86.79;99539.09;108249;1279;22633;-80
2022/01/26 11:01:11;;;;;;;32.80;16.80;;;;;;;1.13;86.74;99538.44;108126;1279;22583;-80
2022/01/26 11:03:39;;;;;;;32.50;16.60;;;;;;;1.11;86.86;99531.93;107987;1279;24266;-77
2022/01/26 11:06:08;;;;;;;24.90;13.30;;;;;;;1.15;87.13;99532.59;108016;1279;22716;-78
2022/01/26 11:08:38;;;;;;;25.10;13.50;;;;;;;1.14;87.28;99529.34;108027;1279;22570;-78
2022/01/26 11:11:05;;;;;;;29.10;14.30;;;;;;;1.12;87.40;99525.07;107961;1279;24250;-79
2022/01/26 11:13:39;;;;;;;31.60;15.80;;;;;;;1.12;87.28;99523.86;107922;1279;24119;-78
2022/01/26 11:16:08;;;;;;;27.50;14.80;;;;;;;1.16;87.16;99521.08;107958;1279;22668;-76
2022/01/26 11:18:52;;;;;;;24.00;14.50;;;;;;;1.20;86.99;99515.69;107941;1279;23214;-76
2022/01/26 11:21:34;;;;;;;22.40;13.60;;;;;;;1.23;87.06;99517.21;107994;1279;22564;-78
2022/01/26 11:24:15;;;;;;;24.10;14.10;;;;;;;1.23;87.38;99523.21;107942;1281;22554;-73
2022/01/26 11:26:44;;;;;;;23.80;13.70;;;;;;;1.24;87.45;99522.17;107963;1279;23439;-79
2022/01/26 11:29:25;;;;;;;26.30;14.60;;;;;;;1.25;87.27;99524.90;107936;1280;25380;-79
2022/01/26 11:32:07;;;;;;;26.10;14.20;;;;;;;1.22;86.97;99528.89;107960;1281;25443;-79
2022/01/26 11:34:35;;;;;;;32.70;16.20;;;;;;;1.19;86.91;99526.70;108007;1281;22547;-77
2022/01/26 11:37:04;;;;;;;25.80;14.40;;;;;;;1.23;86.85;99526.30;107987;1280;22815;-78
2022/01/26 11:45:10;;;;;;;26.20;14.50;;;;;;;1.26;87.28;99516.64;108040;1280;22893;-78
2022/01/26 11:48:03;;;;;;;28.60;15.60;;;;;;;1.23;87.28;99512.92;108065;1279;22560;-78
2022/01/26 11:50:30;;;;;;;32.00;16.80;;;;;;;1.21;87.12;99512.42;107998;1280;24029;-78
2022/01/26 11:53:05;;;;;;;34.30;15.60;;;;;;;1.20;86.82;99511.57;107895;1280;25535;-75
2022/01/26 11:55:48;;;;;;;27.10;15.10;;;;;;;1.22;86.84;99507.61;108020;1281;22549;-78
2022/01/26 11:58:18;;;;;;;27.30;14.20;;;;;;;1.25;86.93;99502.59;108028;1279;22565;-77
2022/01/26 12:00:57;;;;;;;29.20;14.40;;;;;;;1.30;87.10;99499.09;108000;1281;22654;-78
2022/01/26 12:03:31;;;;;;;29.60;14.90;;;;;;;1.33;87.19;99494.77;108037;1279;22698;-78
2022/01/26 12:06:00;;;;;;;27.40;13.20;;;;;;;1.32;87.18;99489.11;108004;1279;25355;-75
2022/01/26 12:08:38;;;;;;;35.40;16.00;;;;;;;1.32;87.10;99487.05;108042;1281;22775;-78
2022/01/26 12:11:16;;;;;;;28.10;14.40;;;;;;;1.32;87.13;99481.90;108045;1279;22624;-78
2022/01/26 12:13:45;;;;;;;30.10;15.40;;;;;;;1.35;86.91;99478.58;108030;1279;22675;-79
2022/01/26 12:16:17;;;;;;;24.80;12.30;;;;;;;1.36;86.98;99479.92;108028;1280;22589;-77
2022/01/26 12:18:59;;;;;;;26.60;13.20;;;;;;;1.39;87.07;99479.90;108006;1281;22684;-76
2022/01/26 12:38:25;;;;;;;23.70;13.10;;;;;;;1.28;87.09;99474.39;107914;1279;22633;-76
2022/01/26 12:43:49;;;;;;;29.30;16.20;;;;;;;1.24;87.30;99471.21;107932;1281;22571;-75
2022/01/26 12:46:24;;;;;;;30.30;14.90;;;;;;;1.24;87.01;99472.24;107953;1281;25453;-75
2022/01/26 12:49:05;;;;;;;28.50;16.50;;;;;;;1.28;86.89;99471.83;107939;1281;22721;-74
2022/01/26 12:51:45;;;;;;;27.20;15.50;;;;;;;1.28;86.90;99469.94;107963;1279;22574;-76
2022/01/26 12:54:13;;;;;;;25.50;14.70;;;;;;;1.27;87.22;99465.13;107931;1279;25697;-78
2022/01/26 12:56:40;;;;;;;30.00;17.80;;;;;;;1.27;87.23;99463.25;107954;1281;22776;-76
2022/01/26 12:59:21;;;;;;;32.90;17.40;;;;;;;1.26;87.23;99463.60;107909;1281;22590;-75
2022/01/26 13:01:53;;;;;;;24.60;13.20;;;;;;;1.26;87.07;99459.83;108289;1280;22558;-78
2022/01/26 13:04:20;;;;;;;23.90;14.70;;;;;;;1.26;86.86;99454.70;108228;1280;24422;-77
2022/01/26 13:06:51;;;;;;;26.80;15.30;;;;;;;1.27;86.75;99451.08;108011;1280;22586;-78
2022/01/26 13:09:26;;;;;;;31.70;16.10;;;;;;;1.29;86.90;99452.08;108024;1281;22624;-77
2022/01/26 13:11:58;;;;;;;31.50;17.90;;;;;;;1.30;87.12;99451.04;108043;1279;25324;-77
2022/01/26 13:14:57;;;;;;;29.60;17.20;;;;;;;1.30;87.30;99449.14;108012;1281;22604;-78
2022/01/26 14:01:46;;;;;;;37.50;19.40;;;;;;;1.13;86.99;99454.88;107795;1279;22594;-77
2022/01/26 14:04:17;;;;;;;46.60;21.80;;;;;;;1.13;87.09;99457.29;107985;1279;22686;-78
2022/01/26 14:06:47;;;;;;;51.50;22.40;;;;;;;1.13;87.09;99457.63;108006;1279;26887;-77
2022/01/26 14:09:14;;;;;;;43.40;20.00;;;;;;;1.14;87.46;99453.84;108004;1279;23185;-77
2022/01/26 14:11:46;;;;;;;38.50;21.10;;;;;;;1.11;87.38;99457.83;108435;1279;22684;-80
2022/01/26 14:14:21;;;;;;;45.00;23.00;;;;;;;1.09;87.42;99458.19;107996;1279;26717;-77
2022/01/26 14:16:56;;;;;;;45.80;23.80;;;;;;;1.09;87.29;99456.30;108035;1279;22807;-77
2022/01/26 14:22:30;;;;;;;38.10;21.10;;;;;;;1.13;87.33;99445.95;107830;1279;22572;-78
2022/01/26 14:25:14;;;;;;;36.90;19.40;;;;;;;1.14;87.60;99445.44;107978;1279;25596;-78
2022/01/26 14:27:45;;;;;;;35.90;19.00;;;;;;;1.09;87.47;99449.43;107956;1279;25530;-78
2022/01/26 14:33:11;;;;;;;36.90;20.30;;;;;;;1.05;87.17;99445.05;107942;1279;23603;-76